Time;durP1;ratioP1;P1;durP2;ratioP2;P2;SDS_P1;SDS_P2;PMS_P1;PMS_P2;Temp;Humidity;BMP_temperature;BMP_pressure;BME280_temperature;BME280_humidity;BME280_pressure;Samples;Min_cycle;Max_cycle;Signal;HPM_P1;HPM_P2
2023/09/25 00:01:00;;;;;;;9.83;8.30;;;6.30;99.90;;;;;;5074016;28;20197;-68
2023/09/25 00:03:27;;;;;;;9.63;8.63;;;6.20;99.90;;;;;;5073906;28;20197;-68
2023/09/25 00:05:54;;;;;;;9.53;8.40;;;6.20;99.90;;;;;;5073772;28;20201;-68
2023/09/25 00:08:22;;;;;;;9.43;8.43;;;6.20;99.90;;;;;;5073730;28;20632;-69
2023/09/25 00:10:49;;;;;;;9.37;7.80;;;6.20;99.90;;;;;;5073654;28;20246;-68
2023/09/25 00:13:15;;;;;;;8.63;7.73;;;6.10;99.90;;;;;;5073947;28;20201;-68
2023/09/25 00:15:44;;;;;;;11.77;8.77;;;6.10;99.90;;;;;;5073770;28;20262;-69
2023/09/25 00:18:10;;;;;;;10.43;8.97;;;6.00;99.90;;;;;;5073633;28;20655;-68
2023/09/25 00:20:37;;;;;;;11.30;8.67;;;6.00;99.90;;;;;;5073739;28;20254;-68
2023/09/25 00:23:04;;;;;;;9.97;7.93;;;6.00;99.90;;;;;;5073549;28;20227;-68
2023/09/25 00:25:32;;;;;;;9.33;8.33;;;6.00;99.90;;;;;;5073708;28;20193;-68
2023/09/25 00:27:59;;;;;;;12.57;8.43;;;6.10;99.90;;;;;;5073529;28;20254;-68
2023/09/25 00:30:26;;;;;;;8.93;7.33;;;6.30;99.90;;;;;;5073606;28;20205;-68
2023/09/25 00:32:53;;;;;;;8.77;7.67;;;6.10;99.90;;;;;;5073437;28;20656;-69
2023/09/25 00:35:20;;;;;;;9.20;7.57;;;6.00;99.90;;;;;;5073318;28;20660;-69
2023/09/25 00:37:47;;;;;;;15.10;8.53;;;6.10;99.90;;;;;;5038169;28;1024992;-69
2023/09/25 00:40:14;;;;;;;10.90;8.93;;;6.20;99.90;;;;;;5074484;28;20607;-69
2023/09/25 00:42:42;;;;;;;9.47;8.50;;;6.30;99.90;;;;;;5074178;28;20212;-69
2023/09/25 00:45:10;;;;;;;11.33;7.87;;;6.30;99.90;;;;;;5074283;28;20204;-69
2023/09/25 00:47:38;;;;;;;10.40;8.90;;;6.20;99.90;;;;;;5074081;28;20695;-69
2023/09/25 00:50:06;;;;;;;9.70;8.70;;;6.20;99.90;;;;;;5074106;28;20201;-69
2023/09/25 00:52:34;;;;;;;11.60;8.70;;;6.20;99.90;;;;;;5074434;28;20642;-69
2023/09/25 00:55:02;;;;;;;14.17;9.20;;;6.30;99.90;;;;;;5074232;28;20201;-69
2023/09/25 00:57:30;;;;;;;9.70;8.67;;;6.30;99.90;;;;;;5074053;28;20575;-69
2023/09/25 00:59:57;;;;;;;11.63;8.43;;;6.30;99.90;;;;;;5074092;28;20286;-69
2023/09/25 01:02:25;;;;;;;13.67;10.20;;;6.20;99.90;;;;;;5073994;28;20201;-69
2023/09/25 01:04:52;;;;;;;11.23;9.27;;;6.20;99.90;;;;;;5073825;28;20200;-69
2023/09/25 01:07:19;;;;;;;13.47;9.87;;;6.30;99.90;;;;;;5072954;28;20629;-69
2023/09/25 01:10:04;;;;;;;13.10;9.33;;;6.20;99.90;;;;;;5073899;28;20197;-69
2023/09/25 01:12:30;;;;;;;12.40;9.07;;;6.20;99.90;;;;;;5073769;28;20219;-69
2023/09/25 01:14:58;;;;;;;12.33;9.20;;;6.10;99.90;;;;;;5073686;28;20196;-69
2023/09/25 01:17:25;;;;;;;11.50;9.57;;;6.00;99.90;;;;;;5073551;28;20201;-69
2023/09/25 01:19:52;;;;;;;12.67;9.57;;;6.10;99.90;;;;;;5073644;28;20197;-69
2023/09/25 01:22:20;;;;;;;11.53;9.00;;;6.00;99.90;;;;;;5073492;28;20548;-70
2023/09/25 01:24:46;;;;;;;10.47;9.20;;;6.10;99.90;;;;;;5073605;28;20246;-69
2023/09/25 01:27:13;;;;;;;12.40;8.93;;;6.00;99.90;;;;;;5073442;28;20205;-69
2023/09/25 01:29:40;;;;;;;10.87;8.30;;;5.90;99.90;;;;;;5073088;28;20232;-68
2023/09/25 01:32:07;;;;;;;11.47;8.73;;;5.90;99.90;;;;;;5073518;28;20558;-69
2023/09/25 01:34:35;;;;;;;11.43;9.43;;;6.00;99.90;;;;;;5073458;28;20197;-69
2023/09/25 01:37:04;;;;;;;11.60;8.33;;;5.90;99.90;;;;;;5072850;28;20221;-69
2023/09/25 01:39:32;;;;;;;10.73;8.93;;;5.90;99.90;;;;;;5073130;28;20208;-69
2023/09/25 01:41:59;;;;;;;10.90;8.90;;;5.80;99.90;;;;;;5073074;28;20199;-69
2023/09/25 01:44:26;;;;;;;12.40;9.37;;;5.80;99.90;;;;;;5073071;28;20200;-69
2023/09/25 01:46:52;;;;;;;11.00;8.90;;;5.80;99.90;;;;;;5072966;28;20199;-69
2023/09/25 01:49:19;;;;;;;10.53;8.70;;;5.80;99.90;;;;;;5072861;28;20228;-69
2023/09/25 01:51:45;;;;;;;10.20;8.70;;;5.90;99.90;;;;;;5073098;28;20259;-69
2023/09/25 01:54:12;;;;;;;11.80;8.97;;;5.80;99.90;;;;;;5072911;28;20595;-68
2023/09/25 01:56:40;;;;;;;11.70;8.60;;;5.80;99.90;;;;;;5072786;28;20196;-69
2023/09/25 01:59:07;;;;;;;13.83;9.50;;;5.80;99.90;;;;;;5073180;28;20274;-68
2023/09/25 02:01:34;;;;;;;12.53;8.70;;;5.70;99.90;;;;;;5072848;28;20575;-69
2023/09/25 02:04:01;;;;;;;11.10;9.57;;;5.70;99.90;;;;;;5072815;28;20197;-69
2023/09/25 02:06:27;;;;;;;10.23;8.67;;;5.60;99.90;;;;;;5072897;28;20197;-69
2023/09/25 02:08:54;;;;;;;10.57;8.83;;;5.60;99.90;;;;;;5072773;28;20216;-69
2023/09/25 02:11:21;;;;;;;11.67;8.87;;;5.60;99.90;;;;;;5072759;28;20390;-69
2023/09/25 02:13:49;;;;;;;11.87;9.60;;;5.50;99.90;;;;;;5072725;28;20610;-69
2023/09/25 02:16:15;;;;;;;11.73;9.67;;;5.50;99.90;;;;;;5072705;28;20204;-69
2023/09/25 02:18:42;;;;;;;12.37;10.23;;;5.50;99.90;;;;;;5072623;28;20200;-69
2023/09/25 02:21:08;;;;;;;11.60;10.00;;;5.50;99.90;;;;;;5072594;28;20560;-69
2023/09/25 02:23:35;;;;;;;12.77;10.13;;;5.60;99.90;;;;;;5072573;28;20648;-69
2023/09/25 02:26:02;;;;;;;14.27;10.23;;;5.60;99.90;;;;;;5072484;28;20197;-69
2023/09/25 02:28:29;;;;;;;13.33;10.27;;;5.50;99.90;;;;;;5072648;28;20225;-69
2023/09/25 02:30:56;;;;;;;10.63;9.47;;;5.50;99.90;;;;;;5072699;28;20243;-69
2023/09/25 02:33:23;;;;;;;12.50;9.27;;;5.50;99.90;;;;;;5072531;28;20204;-69
2023/09/25 02:35:50;;;;;;;13.40;10.53;;;5.40;99.90;;;;;;5072604;28;20258;-69
2023/09/25 02:38:16;;;;;;;11.83;9.97;;;5.40;99.90;;;;;;5072276;28;20727;-69
2023/09/25 02:40:43;;;;;;;13.13;9.60;;;5.50;99.90;;;;;;5072336;28;20212;-69
2023/09/25 02:43:10;;;;;;;14.30;10.43;;;5.40;99.90;;;;;;5072508;28;20201;-69
2023/09/25 02:45:36;;;;;;;13.77;10.20;;;5.40;99.90;;;;;;5072495;28;20205;-69
2023/09/25 02:48:05;;;;;;;12.50;10.07;;;5.40;99.90;;;;;;5072420;28;20197;-69
2023/09/25 02:50:32;;;;;;;14.10;10.70;;;5.50;99.90;;;;;;5072281;28;20652;-69
2023/09/25 02:52:58;;;;;;;12.70;10.87;;;5.40;99.90;;;;;;5072155;28;20194;-69
2023/09/25 02:55:25;;;;;;;11.87;10.30;;;5.40;99.90;;;;;;5072372;28;20552;-69
2023/09/25 02:57:51;;;;;;;12.23;10.27;;;5.40;99.90;;;;;;5072446;28;20197;-69
2023/09/25 03:00:18;;;;;;;11.33;9.83;;;5.40;99.90;;;;;;5072542;28;20257;-69
2023/09/25 03:02:45;;;;;;;13.77;10.13;;;5.40;99.90;;;;;;5072240;28;20603;-69
2023/09/25 03:05:14;;;;;;;12.83;10.27;;;5.40;99.90;;;;;;5072264;28;20223;-68
2023/09/25 03:07:41;;;;;;;13.87;10.10;;;5.40;99.90;;;;;;5072122;28;20263;-69
2023/09/25 03:10:08;;;;;;;11.17;9.97;;;5.30;99.90;;;;;;5072284;28;20220;-69
2023/09/25 03:12:35;;;;;;;10.77;9.60;;;5.40;99.90;;;;;;5072237;28;20205;-69
2023/09/25 03:15:04;;;;;;;14.57;11.47;;;5.40;99.90;;;;;;5072081;28;20547;-69
2023/09/25 03:17:31;;;;;;;13.73;11.30;;;5.40;99.90;;;;;;5071965;28;20656;-69
2023/09/25 03:19:58;;;;;;;15.37;10.70;;;5.40;99.90;;;;;;5072092;28;20288;-69
2023/09/25 03:22:26;;;;;;;17.63;12.30;;;5.50;99.90;;;;;;5071947;28;20648;-69
2023/09/25 03:24:53;;;;;;;16.23;12.03;;;5.40;99.90;;;;;;5072214;28;20259;-69
2023/09/25 03:27:19;;;;;;;14.87;11.70;;;5.50;99.90;;;;;;5072111;28;20197;-69
2023/09/25 03:29:46;;;;;;;15.40;10.90;;;5.50;99.90;;;;;;5072252;28;20228;-69
2023/09/25 03:32:13;;;;;;;13.13;10.80;;;5.40;99.90;;;;;;5075612;28;20251;-69
2023/09/25 03:34:40;;;;;;;13.37;11.40;;;5.40;99.90;;;;;;5075499;28;20197;-69
2023/09/25 03:37:06;;;;;;;13.37;11.27;;;5.40;99.90;;;;;;5075460;28;20233;-69
2023/09/25 03:39:34;;;;;;;14.00;11.83;;;5.40;99.90;;;;;;5075231;28;20239;-69
2023/09/25 03:42:01;;;;;;;15.93;11.10;;;5.50;99.90;;;;;;5075411;28;20200;-69
2023/09/25 03:44:28;;;;;;;16.67;12.37;;;5.40;99.90;;;;;;5075540;28;20217;-69
2023/09/25 03:46:54;;;;;;;15.20;11.83;;;5.30;99.90;;;;;;5075290;28;20201;-68
2023/09/25 03:49:21;;;;;;;16.03;11.80;;;5.40;99.90;;;;;;5075099;28;20220;-69
2023/09/25 03:51:48;;;;;;;14.47;11.40;;;5.40;99.90;;;;;;5075518;28;20197;-68
2023/09/25 03:54:14;;;;;;;16.23;10.87;;;5.40;99.90;;;;;;5075383;28;20201;-68
2023/09/25 03:56:42;;;;;;;17.20;12.50;;;5.30;99.90;;;;;;5075203;28;20201;-68
2023/09/25 03:59:10;;;;;;;18.90;12.83;;;5.30;99.90;;;;;;5075172;28;20235;-68
2023/09/25 04:01:37;;;;;;;18.63;12.40;;;5.40;99.90;;;;;;5075088;28;20224;-69
2023/09/25 04:04:06;;;;;;;18.63;12.00;;;5.40;99.90;;;;;;5075081;28;20205;-69
2023/09/25 04:06:33;;;;;;;15.00;11.17;;;5.30;99.90;;;;;;5074749;28;20678;-69
2023/09/25 04:08:59;;;;;;;13.47;10.97;;;5.30;99.90;;;;;;5074806;28;20232;-69
2023/09/25 04:11:26;;;;;;;12.93;10.53;;;5.30;99.90;;;;;;5075034;28;20197;-69
2023/09/25 04:13:56;;;;;;;15.53;11.23;;;5.40;99.90;;;;;;5074855;28;20271;-69
2023/09/25 04:16:23;;;;;;;16.50;11.47;;;5.40;99.90;;;;;;5074802;28;20207;-69
2023/09/25 04:18:50;;;;;;;13.73;11.37;;;5.50;99.90;;;;;;5075013;28;20262;-69
2023/09/25 04:21:17;;;;;;;13.53;10.40;;;5.30;99.90;;;;;;5074811;28;20287;-69
2023/09/25 04:23:44;;;;;;;15.20;10.27;;;5.20;99.90;;;;;;5074747;28;20200;-69
2023/09/25 04:26:11;;;;;;;14.23;10.40;;;5.10;99.90;;;;;;5074708;28;20201;-69
2023/09/25 04:28:40;;;;;;;15.27;11.10;;;5.00;99.90;;;;;;5074445;28;20908;-69
2023/09/25 04:31:08;;;;;;;13.60;11.50;;;5.10;99.90;;;;;;5074483;28;20205;-69
2023/09/25 04:33:35;;;;;;;13.57;10.97;;;5.10;99.90;;;;;;5074606;28;20204;-69
2023/09/25 04:36:02;;;;;;;23.33;15.00;;;5.00;99.90;;;;;;5074432;28;20260;-69
2023/09/25 04:38:30;;;;;;;22.73;15.87;;;5.00;99.90;;;;;;5074898;28;20197;-69
2023/09/25 04:40:57;;;;;;;20.43;14.93;;;5.20;99.90;;;;;;5074059;28;20254;-69
2023/09/25 04:43:23;;;;;;;17.30;13.13;;;5.20;99.90;;;;;;5073557;28;20205;-69
2023/09/25 04:45:51;;;;;;;16.90;12.13;;;5.10;99.90;;;;;;5073802;28;20710;-69
2023/09/25 04:48:19;;;;;;;17.07;12.47;;;5.00;99.90;;;;;;5074230;28;20201;-70
2023/09/25 04:50:45;;;;;;;16.37;12.83;;;4.90;99.90;;;;;;5074443;28;20233;-69
2023/09/25 04:53:13;;;;;;;16.17;12.90;;;5.00;99.90;;;;;;5074355;28;20205;-69
2023/09/25 04:55:40;;;;;;;18.70;12.77;;;4.90;99.90;;;;;;5074020;28;20201;-69
2023/09/25 04:58:07;;;;;;;17.07;12.10;;;5.00;99.90;;;;;;5074088;28;20204;-69
2023/09/25 05:00:34;;;;;;;16.60;12.37;;;5.10;99.90;;;;;;5074267;28;20622;-69
2023/09/25 05:03:01;;;;;;;16.77;12.40;;;5.10;99.90;;;;;;5074101;28;20197;-69
2023/09/25 05:05:29;;;;;;;16.40;11.80;;;5.20;99.90;;;;;;5073862;28;20586;-69
2023/09/25 05:07:57;;;;;;;14.03;11.83;;;5.10;99.90;;;;;;5073934;28;20265;-69
2023/09/25 05:10:26;;;;;;;15.43;11.17;;;5.00;99.90;;;;;;5073748;28;20759;-69
2023/09/25 05:12:53;;;;;;;13.87;11.40;;;5.10;99.90;;;;;;5073711;28;20601;-69
2023/09/25 05:15:20;;;;;;;14.53;11.57;;;5.10;99.90;;;;;;5073820;28;20201;-69
2023/09/25 05:17:47;;;;;;;16.43;11.70;;;5.20;99.90;;;;;;5073543;28;20599;-69
2023/09/25 05:20:16;;;;;;;14.93;12.03;;;5.20;99.90;;;;;;5073474;28;20583;-69
2023/09/25 05:22:45;;;;;;;14.97;11.63;;;5.30;99.90;;;;;;5073480;28;20215;-69
2023/09/25 05:25:13;;;;;;;14.77;12.20;;;5.30;99.90;;;;;;5073478;28;20603;-70
2023/09/25 05:27:43;;;;;;;16.13;12.87;;;5.30;99.90;;;;;;5073434;28;20284;-70
2023/09/25 05:30:11;;;;;;;16.27;12.33;;;5.40;99.90;;;;;;5073504;28;20232;-69
2023/09/25 05:32:39;;;;;;;15.20;12.77;;;5.40;99.90;;;;;;5073393;28;20193;-70
2023/09/25 05:35:07;;;;;;;17.43;13.33;;;5.20;99.90;;;;;;5073273;28;20205;-69
2023/09/25 05:37:34;;;;;;;15.37;12.70;;;5.30;99.90;;;;;;5073000;28;20282;-69
2023/09/25 05:40:02;;;;;;;16.13;11.20;;;5.40;99.90;;;;;;5073420;28;20201;-68
2023/09/25 05:42:29;;;;;;;15.03;11.70;;;5.40;99.90;;;;;;5073265;28;20200;-69
2023/09/25 05:44:56;;;;;;;14.77;11.97;;;5.50;99.90;;;;;;5073172;28;20285;-69
2023/09/25 05:47:23;;;;;;;13.37;11.93;;;5.50;99.90;;;;;;5072755;28;20211;-69
2023/09/25 05:49:50;;;;;;;17.07;11.63;;;5.70;99.90;;;;;;5072814;28;20225;-69
2023/09/25 05:52:17;;;;;;;16.07;11.17;;;5.70;99.90;;;;;;5072492;28;20194;-69
2023/09/25 05:54:44;;;;;;;15.03;12.07;;;5.80;99.90;;;;;;5072694;28;20667;-68
2023/09/25 05:57:12;;;;;;;16.80;11.73;;;5.80;99.90;;;;;;5073006;28;20204;-68
2023/09/25 05:59:39;;;;;;;15.93;11.63;;;5.90;99.90;;;;;;5072984;28;20217;-68
2023/09/25 06:02:07;;;;;;;14.00;12.07;;;6.00;99.90;;;;;;5072839;28;20287;-68
2023/09/25 06:04:36;;;;;;;14.53;13.03;;;6.10;99.90;;;;;;5072791;28;20667;-68
2023/09/25 06:07:02;;;;;;;19.20;13.47;;;6.10;99.90;;;;;;5072972;28;20216;-69
2023/09/25 06:09:29;;;;;;;15.13;12.30;;;6.20;99.90;;;;;;5072909;28;20220;-68
2023/09/25 06:11:56;;;;;;;14.93;13.30;;;6.30;99.90;;;;;;5072779;28;20201;-68
2023/09/25 06:14:24;;;;;;;14.33;12.27;;;6.30;99.90;;;;;;5072727;28;20631;-69
2023/09/25 06:16:54;;;;;;;17.03;13.67;;;6.40;99.90;;;;;;5072592;28;20246;-70
2023/09/25 06:19:21;;;;;;;19.97;13.53;;;6.50;99.90;;;;;;5072678;28;20236;-70
2023/09/25 06:21:48;;;;;;;16.63;14.27;;;6.70;99.90;;;;;;5072855;28;20198;-69
2023/09/25 06:24:15;;;;;;;15.40;13.77;;;6.80;99.90;;;;;;5072659;28;20200;-72
2023/09/25 06:26:46;;;;;;;17.10;13.23;;;6.90;99.90;;;;;;5072462;28;20196;-69
2023/09/25 06:29:13;;;;;;;15.43;13.73;;;7.00;99.90;;;;;;5072545;28;20203;-70
2023/09/25 06:31:42;;;;;;;16.80;13.47;;;7.10;99.90;;;;;;5072613;28;20204;-69
2023/09/25 06:34:09;;;;;;;14.17;12.73;;;7.20;99.90;;;;;;5072429;28;20200;-68
2023/09/25 06:36:36;;;;;;;14.77;13.20;;;7.30;99.90;;;;;;5072217;28;20729;-68
2023/09/25 06:39:06;;;;;;;15.80;12.87;;;7.40;99.90;;;;;;5072685;28;20588;-68
2023/09/25 06:41:33;;;;;;;17.53;13.60;;;7.50;99.90;;;;;;5072387;28;20207;-70
2023/09/25 06:44:00;;;;;;;15.43;13.83;;;7.60;99.90;;;;;;5072553;28;20197;-79
2023/09/25 06:46:26;;;;;;;14.60;13.10;;;7.80;99.90;;;;;;5069628;28;20201;-73
2023/09/25 06:48:54;;;;;;;15.60;13.93;;;7.90;99.90;;;;;;5069096;28;20197;-70
2023/09/25 06:51:22;;;;;;;15.33;13.73;;;8.00;99.90;;;;;;5068707;28;20301;-69
2023/09/25 06:53:49;;;;;;;14.50;13.00;;;8.20;99.90;;;;;;5068971;28;20232;-69
2023/09/25 06:56:15;;;;;;;17.20;13.27;;;8.30;99.90;;;;;;5069204;28;20260;-69
2023/09/25 06:58:42;;;;;;;15.07;13.47;;;8.50;99.90;;;;;;5068921;28;20231;-70
2023/09/25 07:01:08;;;;;;;14.57;13.07;;;8.60;99.90;;;;;;5069646;28;20602;-69
2023/09/25 07:03:35;;;;;;;15.40;13.80;;;8.80;99.90;;;;;;5068858;28;20201;-69
2023/09/25 07:06:04;;;;;;;16.30;13.20;;;9.00;99.90;;;;;;5071361;28;20201;-70
2023/09/25 07:08:32;;;;;;;14.43;12.93;;;9.20;99.90;;;;;;5072682;28;20725;-69
2023/09/25 07:10:59;;;;;;;14.73;13.00;;;9.40;99.90;;;;;;5072678;28;20510;-70
2023/09/25 07:13:26;;;;;;;16.53;12.87;;;9.50;99.90;;;;;;5072580;28;20566;-69
2023/09/25 07:16:02;;;;;;;13.67;12.13;;;9.60;99.90;;;;;;5074133;28;20644;-70
2023/09/25 07:18:29;;;;;;;17.93;12.93;;;9.90;99.90;;;;;;5071641;28;20200;-70
2023/09/25 07:20:55;;;;;;;12.90;11.70;;;10.10;99.90;;;;;;5072310;28;20287;-70
2023/09/25 07:23:24;;;;;;;12.73;11.47;;;10.20;99.90;;;;;;5072426;28;20254;-70
2023/09/25 07:25:50;;;;;;;13.03;11.00;;;10.40;99.90;;;;;;5072215;28;20197;-69
2023/09/25 07:28:17;;;;;;;11.27;10.17;;;10.60;99.90;;;;;;5072017;28;20196;-69
2023/09/25 07:30:44;;;;;;;11.77;10.07;;;10.70;99.90;;;;;;5072130;28;20294;-68
2023/09/25 07:33:12;;;;;;;11.97;9.50;;;10.90;99.90;;;;;;5072268;28;20200;-69
2023/09/25 07:35:39;;;;;;;12.63;8.40;;;11.10;99.90;;;;;;5072142;28;20296;-69
2023/09/25 07:38:05;;;;;;;8.80;7.87;;;11.30;99.90;;;;;;5071710;28;20576;-70
2023/09/25 07:40:33;;;;;;;9.43;8.37;;;11.40;99.90;;;;;;5071657;28;20657;-69
2023/09/25 07:43:00;;;;;;;7.70;7.00;;;11.50;99.90;;;;;;5072203;28;20204;-70
2023/09/25 07:45:27;;;;;;;8.33;7.53;;;11.70;99.90;;;;;;5072177;28;20257;-70
2023/09/25 07:47:55;;;;;;;7.07;6.37;;;11.90;99.90;;;;;;5071836;28;20201;-69
2023/09/25 07:50:24;;;;;;;7.67;6.87;;;12.10;99.90;;;;;;5071462;28;20225;-69
2023/09/25 07:52:54;;;;;;;6.90;6.20;;;12.20;99.90;;;;;;5072064;28;20209;-70
2023/09/25 07:55:21;;;;;;;7.50;6.53;;;12.40;99.90;;;;;;5071617;28;20201;-70
2023/09/25 07:57:50;;;;;;;6.60;6.00;;;12.60;99.90;;;;;;5071784;28;20201;-70
2023/09/25 08:00:22;;;;;;;6.63;6.00;;;12.90;99.90;;;;;;5071842;28;20216;-69
2023/09/25 08:02:49;;;;;;;5.80;5.20;;;13.20;99.90;;;;;;5071603;28;20278;-69
2023/09/25 08:05:18;;;;;;;5.87;5.20;;;13.30;99.90;;;;;;5071838;28;20193;-70
2023/09/25 08:07:45;;;;;;;7.50;5.50;;;13.50;99.90;;;;;;5071285;28;20300;-71
2023/09/25 08:10:12;;;;;;;5.97;5.03;;;13.70;99.90;;;;;;5087401;28;20217;-68
2023/09/25 08:12:39;;;;;;;5.73;5.20;;;13.90;99.90;;;;;;5095004;28;20283;-68
2023/09/25 08:15:08;;;;;;;5.80;4.80;;;14.10;99.90;;;;;;5094571;28;20204;-68
2023/09/25 08:17:35;;;;;;;5.03;4.53;;;14.30;99.90;;;;;;5094675;28;20563;-68
2023/09/25 08:20:13;;;;;;;5.83;4.60;;;14.50;99.90;;;;;;5095088;28;20201;-69
2023/09/25 08:22:40;;;;;;;4.77;4.37;;;14.80;99.90;;;;;;5095348;28;20668;-68
2023/09/25 08:25:08;;;;;;;6.23;4.77;;;15.00;99.90;;;;;;5095299;28;20204;-69
2023/09/25 08:27:35;;;;;;;4.60;4.03;;;15.00;99.90;;;;;;5095385;28;20624;-68
2023/09/25 08:30:02;;;;;;;4.83;4.40;;;15.30;99.90;;;;;;5095022;28;20220;-69
2023/09/25 08:32:31;;;;;;;4.47;4.07;;;15.40;99.90;;;;;;5094856;28;20287;-69
2023/09/25 08:34:57;;;;;;;5.38;4.20;;;15.60;99.90;;;;;;5094677;28;20196;-69
2023/09/25 08:37:24;;;;;;;6.22;4.03;;;15.90;99.90;;;;;;5084807;28;20278;-68
2023/09/25 08:39:52;;;;;;;4.43;3.47;;;16.10;99.90;;;;;;5074714;28;20204;-68
2023/09/25 08:42:21;;;;;;;4.47;4.05;;;16.10;99.90;;;;;;5074429;28;20201;-69
2023/09/25 08:44:50;;;;;;;4.28;3.55;;;16.20;99.90;;;;;;5074376;28;20247;-69
2023/09/25 08:47:19;;;;;;;4.20;3.80;;;16.40;99.90;;;;;;5073704;28;20197;-70
2023/09/25 08:49:48;;;;;;;4.05;3.65;;;16.60;99.90;;;;;;5073996;28;20721;-69
2023/09/25 08:52:15;;;;;;;4.05;3.63;;;16.80;99.90;;;;;;5074481;28;20196;-70
2023/09/25 08:54:42;;;;;;;4.65;3.25;;;17.10;99.90;;;;;;5074294;28;20288;-69
2023/09/25 08:57:09;;;;;;;3.85;3.47;;;17.20;99.90;;;;;;5074043;28;20292;-69
2023/09/25 08:59:37;;;;;;;4.78;3.03;;;17.30;99.90;;;;;;5073908;28;20611;-69
2023/09/25 09:02:05;;;;;;;5.22;3.00;;;17.50;99.90;;;;;;5073607;28;20197;-69
2023/09/25 09:04:32;;;;;;;3.85;3.00;;;17.70;99.90;;;;;;5074009;28;20250;-69
2023/09/25 09:07:00;;;;;;;3.88;3.33;;;17.90;99.90;;;;;;5073895;28;20200;-69
2023/09/25 09:09:27;;;;;;;3.42;2.90;;;18.00;99.90;;;;;;5073628;28;20689;-69
2023/09/25 09:11:57;;;;;;;3.00;2.70;;;18.20;99.90;;;;;;5073778;28;20263;-69
2023/09/25 09:14:33;;;;;;;4.38;3.03;;;18.40;99.90;;;;;;5073658;28;20201;-69
2023/09/25 09:17:04;;;;;;;4.97;2.88;;;18.70;99.90;;;;;;5073942;28;20287;-70
2023/09/25 09:19:36;;;;;;;6.53;3.28;;;19.00;99.90;;;;;;5073692;28;20201;-70
2023/09/25 09:22:06;;;;;;;4.22;2.60;;;19.20;99.90;;;;;;5073645;28;20299;-70
2023/09/25 09:24:33;;;;;;;4.05;3.10;;;19.40;99.90;;;;;;5073471;28;20740;-70
2023/09/25 09:27:01;;;;;;;2.85;2.65;;;19.30;99.90;;;;;;5073480;28;20201;-70
2023/09/25 09:29:27;;;;;;;4.93;2.97;;;19.80;99.90;;;;;;5072986;28;20193;-70
2023/09/25 09:31:55;;;;;;;3.25;2.72;;;20.10;99.90;;;;;;5073466;28;20220;-69
2023/09/25 09:34:23;;;;;;;4.07;2.50;;;20.50;99.00;;;;;;5073461;28;20192;-70
2023/09/25 09:36:51;;;;;;;2.63;2.42;;;20.60;98.00;;;;;;5073173;28;20316;-70
2023/09/25 09:39:20;;;;;;;3.38;2.50;;;20.90;97.90;;;;;;5073317;28;20228;-70
2023/09/25 09:41:50;;;;;;;2.50;2.30;;;21.10;96.60;;;;;;5073397;28;20556;-70
2023/09/25 09:44:17;;;;;;;3.35;2.50;;;21.10;96.10;;;;;;5073546;28;20223;-70
2023/09/25 09:46:46;;;;;;;2.45;2.25;;;21.50;95.00;;;;;;5073032;28;20624;-70
2023/09/25 09:49:15;;;;;;;2.22;1.98;;;21.70;94.60;;;;;;5073161;28;20197;-70
2023/09/25 09:51:44;;;;;;;2.63;2.30;;;21.80;93.40;;;;;;5073022;28;20221;-70
2023/09/25 09:54:13;;;;;;;4.13;2.50;;;22.00;93.00;;;;;;5073039;28;20197;-70
2023/09/25 09:56:41;;;;;;;3.88;2.17;;;22.30;91.80;;;;;;5073253;28;20307;-70
2023/09/25 09:59:08;;;;;;;2.42;2.10;;;22.40;92.10;;;;;;5073119;28;20287;-70
2023/09/25 10:01:36;;;;;;;5.40;2.28;;;22.70;90.50;;;;;;5073052;28;20204;-70
2023/09/25 10:04:05;;;;;;;2.22;1.90;;;22.90;90.00;;;;;;5072950;28;20558;-70
2023/09/25 10:06:36;;;;;;;2.33;1.90;;;23.20;86.50;;;;;;5072860;28;20197;-69
2023/09/25 10:09:08;;;;;;;3.28;2.30;;;23.40;85.00;;;;;;5072838;28;20599;-69
2023/09/25 10:11:35;;;;;;;3.03;1.90;;;23.40;83.50;;;;;;5072919;28;20229;-69
2023/09/25 10:14:04;;;;;;;4.55;1.92;;;23.40;81.50;;;;;;5072884;28;20284;-70
2023/09/25 10:16:51;;;;;;;3.67;2.00;;;23.50;80.60;;;;;;5072693;28;20287;-69
2023/09/25 10:19:20;;;;;;;2.22;1.98;;;23.30;80.00;;;;;;5072974;28;20204;-70
2023/09/25 10:22:07;;;;;;;2.30;2.00;;;23.60;79.50;;;;;;5072797;28;20240;-69
2023/09/25 10:24:34;;;;;;;2.13;1.92;;;24.30;76.60;;;;;;5072788;28;20239;-69
2023/09/25 10:27:01;;;;;;;2.53;2.00;;;24.30;75.30;;;;;;5072649;28;20239;-69
2023/09/25 10:29:29;;;;;;;2.67;2.03;;;24.60;75.30;;;;;;5072414;28;20287;-70
2023/09/25 10:31:57;;;;;;;3.72;2.03;;;24.90;72.00;;;;;;5072515;28;20711;-69
2023/09/25 10:34:25;;;;;;;2.08;1.88;;;25.00;70.20;;;;;;5072731;28;20193;-69
2023/09/25 10:36:57;;;;;;;2.72;2.00;;;24.30;71.30;;;;;;5072524;28;20233;-69
2023/09/25 10:39:26;;;;;;;4.00;2.15;;;25.20;72.30;;;;;;5074059;28;20200;-69
2023/09/25 10:42:01;;;;;;;3.45;1.95;;;25.70;66.90;;;;;;5076516;28;20734;-70
2023/09/25 10:44:30;;;;;;;3.80;1.85;;;26.20;64.90;;;;;;5076580;28;20585;-70
2023/09/25 10:46:56;;;;;;;2.85;2.20;;;26.50;63.90;;;;;;5076915;28;20218;-69
2023/09/25 10:49:23;;;;;;;2.80;1.83;;;27.30;62.50;;;;;;5076667;28;20192;-70
2023/09/25 10:51:50;;;;;;;2.30;2.10;;;27.60;60.70;;;;;;5076524;28;20219;-69
2023/09/25 10:54:16;;;;;;;3.90;1.75;;;28.00;58.40;;;;;;5076345;28;20655;-70
2023/09/25 10:56:43;;;;;;;3.53;1.70;;;28.30;57.80;;;;;;5076648;28;20258;-69
2023/09/25 10:59:11;;;;;;;1.98;1.77;;;28.70;56.30;;;;;;5076567;28;20196;-69
2023/09/25 11:01:39;;;;;;;2.60;1.80;;;28.40;54.30;;;;;;5076501;28;20283;-69
2023/09/25 11:04:07;;;;;;;3.70;1.83;;;28.60;53.50;;;;;;5076185;28;20544;-69
2023/09/25 11:06:34;;;;;;;4.35;1.80;;;29.00;52.00;;;;;;5076189;28;20258;-69
2023/09/25 11:09:07;;;;;;;2.22;1.80;;;29.10;51.00;;;;;;5075969;28;20192;-69
2023/09/25 11:11:34;;;;;;;1.85;1.75;;;29.10;49.80;;;;;;5076299;28;20227;-70
2023/09/25 11:14:00;;;;;;;1.88;1.70;;;30.00;51.00;;;;;;5076345;28;20196;-68
2023/09/25 11:16:28;;;;;;;3.58;1.80;;;29.80;47.60;;;;;;5076170;28;20197;-68
2023/09/25 11:19:11;;;;;;;2.08;1.67;;;30.00;47.80;;;;;;5076079;28;20199;-68
2023/09/25 11:21:38;;;;;;;1.88;1.67;;;30.30;46.70;;;;;;5076227;28;20235;-68
2023/09/25 11:24:07;;;;;;;3.40;2.00;;;29.50;45.80;;;;;;5076154;28;20266;-69
2023/09/25 11:26:36;;;;;;;2.15;1.70;;;29.70;45.50;;;;;;5072006;28;20239;-69
2023/09/25 11:29:06;;;;;;;4.07;1.63;;;30.10;45.60;;;;;;5072672;28;20217;-69
2023/09/25 11:31:33;;;;;;;2.33;1.63;;;28.90;45.70;;;;;;5072160;28;20232;-69
2023/09/25 11:34:00;;;;;;;2.03;1.73;;;29.70;46.10;;;;;;5072136;28;20196;-69
2023/09/25 11:36:30;;;;;;;5.63;2.13;;;30.90;45.10;;;;;;5072237;28;20262;-69
2023/09/25 11:38:57;;;;;;;2.47;1.77;;;31.30;44.30;;;;;;5072010;28;20200;-69
2023/09/25 11:41:23;;;;;;;2.05;1.60;;;31.50;42.50;;;;;;5072146;28;20238;-69
2023/09/25 11:43:50;;;;;;;2.60;1.65;;;31.90;40.90;;;;;;5072092;28;20254;-69
2023/09/25 11:46:17;;;;;;;3.22;1.73;;;32.40;40.70;;;;;;5071670;28;20197;-69
2023/09/25 11:48:44;;;;;;;3.53;1.83;;;32.50;40.40;;;;;;5071809;28;20204;-69
2023/09/25 11:51:11;;;;;;;1.67;1.58;;;32.70;39.50;;;;;;5073139;28;20225;-69
2023/09/25 11:53:39;;;;;;;2.08;1.88;;;32.80;39.60;;;;;;5074348;28;20208;-70
2023/09/25 11:56:06;;;;;;;2.03;1.73;;;32.40;37.80;;;;;;5075405;28;20659;-69
2023/09/25 11:58:33;;;;;;;2.80;1.60;;;33.50;37.90;;;;;;5075444;28;20196;-70
2023/09/25 12:01:00;;;;;;;4.20;1.80;;;33.70;36.60;;;;;;5075246;28;20670;-70
2023/09/25 12:03:27;;;;;;;6.80;2.00;;;33.80;36.10;;;;;;5075420;28;20295;-70
2023/09/25 12:05:53;;;;;;;2.97;1.60;;;33.70;36.50;;;;;;5075426;28;20197;-70
2023/09/25 12:08:20;;;;;;;2.78;1.42;;;34.20;36.00;;;;;;5075360;28;20254;-70
2023/09/25 12:10:48;;;;;;;1.63;1.52;;;34.30;34.90;;;;;;5075117;28;20204;-70
2023/09/25 12:13:16;;;;;;;1.70;1.50;;;34.20;34.80;;;;;;5075167;28;20274;-70
2023/09/25 12:15:44;;;;;;;1.70;1.55;;;34.50;34.70;;;;;;5075076;28;20291;-70
2023/09/25 12:18:10;;;;;;;2.03;1.70;;;34.10;34.10;;;;;;5075256;28;20197;-70
2023/09/25 12:20:41;;;;;;;1.90;1.70;;;35.00;33.40;;;;;;5075036;28;20219;-70
2023/09/25 12:23:09;;;;;;;2.08;1.50;;;35.40;32.50;;;;;;5074887;28;20232;-69
2023/09/25 12:25:36;;;;;;;2.03;1.60;;;35.70;32.40;;;;;;5074889;28;20228;-70
2023/09/25 12:28:05;;;;;;;1.50;1.40;;;36.00;30.80;;;;;;5074754;28;20246;-69
2023/09/25 12:30:32;;;;;;;2.90;1.80;;;34.90;29.80;;;;;;5074867;28;20203;-69
2023/09/25 12:32:58;;;;;;;1.60;1.50;;;35.20;30.70;;;;;;5074867;28;20204;-69
2023/09/25 12:35:26;;;;;;;2.60;1.40;;;35.20;30.30;;;;;;5074643;28;20652;-69
2023/09/25 12:37:55;;;;;;;2.28;2.08;;;33.10;30.90;;;;;;5074530;28;20220;-69
2023/09/25 12:40:22;;;;;;;1.60;1.50;;;33.20;32.30;;;;;;5074587;28;20291;-69
2023/09/25 12:42:49;;;;;;;3.08;1.63;;;34.00;31.90;;;;;;5074659;28;20224;-69
2023/09/25 12:45:17;;;;;;;1.50;1.40;;;34.10;32.00;;;;;;5074389;28;20586;-69